Piopolis, Illinois
Current Conditions -  °F | °C
As of 10:55 AM on Wednesday 26 Nov 2014 (Local Time) from KFWC Reporting Station
Scattered Clouds Scattered Clouds  
Wind Chill: 29°   Ceiling: Unl
Heat Index: 35°   Visibility: 10mi
Dew Point: 30°   Wind: 7mph
Humidity: 83%   Direction: 110°ESE
Pressure: 30.09"   Gusts: NA
Location:  38.1018°N, 88.4953°W
Report Text: KFWC 261655Z AUTO 11006KT 10SM SCT012 01/M01 A3009 RMK AO1 T00141012
Loading
Personal Weather Stations






























Interactive Weather Map New forecast layout! Learn more

10-Day Weather Forecast

Advertisements
Track Severe Weather on mobile